createdAt,value
2018-07-22T00:02:05.961Z,11.80
2018-07-22T00:04:37.113Z,11.65
2018-07-22T00:07:07.747Z,11.57
2018-07-22T00:09:39.403Z,11.70
2018-07-22T00:12:10.204Z,10.50
2018-07-22T00:14:42.176Z,11.12
2018-07-22T00:17:13.715Z,11.20
2018-07-22T00:19:44.165Z,11.40
2018-07-22T00:22:15.094Z,11.55
2018-07-22T00:24:46.934Z,11.43
2018-07-22T00:27:18.459Z,11.50
2018-07-22T00:29:47.200Z,10.82
2018-07-22T00:32:17.167Z,11.75
2018-07-22T00:34:46.371Z,11.25
2018-07-22T00:37:15.620Z,11.40
2018-07-22T00:39:44.670Z,12.70
2018-07-22T00:42:14.568Z,11.73
2018-07-22T00:44:43.407Z,11.75
2018-07-22T00:47:13.125Z,12.18
2018-07-22T00:49:42.061Z,12.13
2018-07-22T00:52:12.020Z,12.30
2018-07-22T00:54:40.909Z,11.93
2018-07-22T00:57:10.854Z,12.88
2018-07-22T00:59:39.942Z,11.85
2018-07-22T01:02:08.758Z,12.35
2018-07-22T01:04:37.606Z,12.00
2018-07-22T01:07:07.005Z,12.98
2018-07-22T01:09:35.739Z,11.63
2018-07-22T01:12:04.729Z,12.03
2018-07-22T01:14:33.632Z,11.20
2018-07-22T01:17:01.904Z,10.85
2018-07-22T01:19:31.534Z,10.98
2018-07-22T01:22:00.212Z,12.20
2018-07-22T01:24:28.948Z,11.08
2018-07-22T01:26:57.526Z,11.45
2018-07-22T01:29:26.539Z,11.30
2018-07-22T01:31:55.244Z,12.78
2018-07-22T01:34:23.929Z,11.40
2018-07-22T01:36:52.564Z,12.73
2018-07-22T01:39:21.414Z,11.22
2018-07-22T01:41:50.019Z,11.43
2018-07-22T01:44:18.813Z,12.40
2018-07-22T01:46:47.636Z,11.68
2018-07-22T01:49:16.363Z,12.60
2018-07-22T01:51:44.944Z,12.82
2018-07-22T01:54:13.707Z,13.45
2018-07-22T01:56:43.036Z,11.93
2018-07-22T01:59:12.710Z,11.93
2018-07-22T02:01:41.509Z,11.95
2018-07-22T02:04:10.072Z,11.63
2018-07-22T02:06:39.781Z,11.88
2018-07-22T02:09:10.033Z,12.05
2018-07-22T02:11:39.905Z,11.83
2018-07-22T02:14:09.135Z,12.82
2018-07-22T02:16:38.380Z,11.83
2018-07-22T02:19:07.384Z,12.40
2018-07-22T02:21:35.972Z,13.15
2018-07-22T02:24:04.636Z,12.95
2018-07-22T02:26:33.287Z,12.35
2018-07-22T02:29:02.007Z,13.35
2018-07-22T02:31:30.981Z,12.18
2018-07-22T02:33:59.662Z,13.08
2018-07-22T02:36:28.269Z,12.70
2018-07-22T02:38:56.505Z,12.47
2018-07-22T02:41:25.253Z,12.30
2018-07-22T02:43:53.583Z,12.45
2018-07-22T02:46:22.218Z,12.33
2018-07-22T02:48:50.933Z,12.25
2018-07-22T02:51:19.577Z,12.50
2018-07-22T02:53:48.111Z,12.88
2018-07-22T02:56:16.952Z,13.83
2018-07-22T02:58:45.486Z,12.75
2018-07-22T03:01:14.466Z,13.30
2018-07-22T03:03:43.160Z,12.55
2018-07-22T03:06:11.753Z,12.55
2018-07-22T03:08:40.618Z,13.48
2018-07-22T03:11:09.197Z,12.60
2018-07-22T03:13:37.976Z,12.73
2018-07-22T03:16:06.671Z,14.40
2018-07-22T03:18:35.993Z,14.03
2018-07-22T03:21:04.780Z,11.85
2018-07-22T03:23:33.410Z,13.55
2018-07-22T03:26:02.806Z,13.13
2018-07-22T03:28:31.396Z,12.53
2018-07-22T03:31:00.044Z,12.82
2018-07-22T03:33:28.913Z,15.55
2018-07-22T03:35:58.450Z,14.15
2018-07-22T03:38:27.474Z,14.33
2018-07-22T03:40:56.459Z,14.58
2018-07-22T03:43:26.604Z,14.38
2018-07-22T03:45:56.432Z,15.35
2018-07-22T03:48:27.028Z,15.78
2018-07-22T03:50:57.410Z,16.55
2018-07-22T03:53:26.079Z,16.17
2018-07-22T03:55:55.821Z,16.32
2018-07-22T03:58:25.579Z,16.50
2018-07-22T04:00:54.304Z,16.57
2018-07-22T04:03:22.957Z,16.67
2018-07-22T04:05:51.724Z,16.85
2018-07-22T04:08:20.504Z,18.55
2018-07-22T04:10:49.200Z,19.95
2018-07-22T04:13:17.818Z,19.15
2018-07-22T04:15:46.535Z,17.75
2018-07-22T04:18:15.450Z,18.40
2018-07-22T04:20:44.208Z,19.50
2018-07-22T04:23:12.909Z,18.75
2018-07-22T04:25:41.924Z,19.15
2018-07-22T04:28:10.807Z,20.50
2018-07-22T04:30:40.139Z,19.73
2018-07-22T04:33:09.380Z,19.50
2018-07-22T04:35:38.384Z,20.52
2018-07-22T04:38:08.504Z,20.82
2018-07-22T04:40:38.138Z,20.85
2018-07-22T04:43:06.803Z,19.15
2018-07-22T04:45:35.917Z,20.55
2018-07-22T04:48:05.394Z,18.87
2018-07-22T04:50:34.156Z,19.82
2018-07-22T04:53:03.225Z,19.70
2018-07-22T04:55:32.036Z,18.65
2018-07-22T04:58:01.528Z,18.30
2018-07-22T05:00:31.111Z,18.10
2018-07-22T05:02:59.797Z,23.90
2018-07-22T05:05:28.748Z,22.35
2018-07-22T05:07:57.441Z,23.83
2018-07-22T05:10:26.161Z,22.25
2018-07-22T05:12:55.283Z,21.95
2018-07-22T05:15:23.930Z,23.18
2018-07-22T05:17:52.999Z,23.40
2018-07-22T05:20:21.691Z,23.47
2018-07-22T05:22:51.696Z,22.77
2018-07-22T05:25:20.670Z,24.37
2018-07-22T05:27:49.268Z,22.77
2018-07-22T05:30:18.264Z,23.47
2018-07-22T05:32:46.910Z,26.17
2018-07-22T05:35:15.584Z,22.35
2018-07-22T05:37:44.753Z,24.50
2018-07-22T05:40:13.524Z,23.95
2018-07-22T05:42:42.165Z,23.65
2018-07-22T05:45:10.979Z,26.05
2018-07-22T05:47:39.397Z,26.20
2018-07-22T05:50:08.948Z,24.72
2018-07-22T05:52:37.700Z,27.93
2018-07-22T05:55:06.802Z,24.87
2018-07-22T05:57:35.782Z,27.73
2018-07-22T06:00:06.044Z,25.55
2018-07-22T06:02:35.102Z,27.42
2018-07-22T06:05:04.636Z,28.70
2018-07-22T06:07:33.859Z,29.82
2018-07-22T06:10:03.430Z,31.68
2018-07-22T06:12:32.445Z,31.17
2018-07-22T06:15:01.090Z,29.72
2018-07-22T06:17:30.567Z,29.72
2018-07-22T06:19:59.320Z,28.75
2018-07-22T06:22:28.336Z,29.40
2018-07-22T06:24:56.912Z,24.95
2018-07-22T06:27:26.204Z,24.77
2018-07-22T06:29:54.779Z,24.27
2018-07-22T06:32:23.504Z,23.18
2018-07-22T06:34:52.332Z,22.32
2018-07-22T06:37:21.463Z,21.33
2018-07-22T06:39:50.099Z,23.22
2018-07-22T06:42:18.811Z,22.80
2018-07-22T06:44:47.562Z,22.05
2018-07-22T06:47:16.387Z,21.80
2018-07-22T06:49:45.014Z,20.55
2018-07-22T06:52:14.095Z,20.52
2018-07-22T06:54:42.736Z,20.55
2018-07-22T06:57:11.521Z,18.42
2018-07-22T06:59:40.742Z,19.12
2018-07-22T07:02:09.506Z,19.12
2018-07-22T07:04:38.358Z,17.95
2018-07-22T07:07:07.517Z,19.40
2018-07-22T07:09:38.112Z,18.07
2018-07-22T07:12:07.181Z,17.57
2018-07-22T07:14:36.287Z,19.30
2018-07-22T07:17:05.315Z,19.87
2018-07-22T07:19:34.572Z,18.75
2018-07-22T07:22:03.355Z,17.30
2018-07-22T07:24:31.974Z,16.90
2018-07-22T07:27:01.633Z,19.55
2018-07-22T07:29:31.291Z,15.43
2018-07-22T07:32:00.373Z,18.50
2018-07-22T07:34:28.993Z,16.62
2018-07-22T07:36:58.130Z,17.23
2018-07-22T07:39:26.938Z,16.40
2018-07-22T07:41:55.561Z,16.82
2018-07-22T07:44:24.467Z,14.20
2018-07-22T07:46:53.196Z,15.80
2018-07-22T07:49:21.899Z,14.33
2018-07-22T07:51:50.569Z,13.88
2018-07-22T07:54:19.200Z,13.60
2018-07-22T07:56:48.384Z,13.83
2018-07-22T07:59:17.136Z,10.23
2018-07-22T08:01:45.760Z,10.43
2018-07-22T08:04:14.567Z,10.38
2018-07-22T08:06:43.186Z,9.73
2018-07-22T08:09:12.068Z,9.00
2018-07-22T08:11:41.030Z,8.78
2018-07-22T08:14:10.147Z,8.85
2018-07-22T08:16:38.875Z,8.80
2018-07-22T08:19:07.842Z,8.38
2018-07-22T08:21:36.599Z,8.88
2018-07-22T08:24:05.581Z,8.88
2018-07-22T08:26:34.475Z,9.28
2018-07-22T08:29:28.318Z,8.73
2018-07-22T08:31:57.846Z,8.75
2018-07-22T08:34:28.570Z,9.13
2018-07-22T08:36:58.152Z,9.23
2018-07-22T08:39:28.405Z,9.40
2018-07-22T08:41:57.557Z,9.38
2018-07-22T08:44:26.301Z,10.13
2018-07-22T08:46:55.035Z,9.48
2018-07-22T08:49:23.704Z,10.00
2018-07-22T08:51:52.657Z,10.03
2018-07-22T08:54:21.301Z,10.18
2018-07-22T08:56:49.991Z,8.95
2018-07-22T08:59:18.768Z,9.65
2018-07-22T09:01:47.425Z,9.75
2018-07-22T09:04:16.060Z,9.30
2018-07-22T09:06:45.173Z,9.00
2018-07-22T09:09:13.786Z,9.68
2018-07-22T09:11:42.084Z,9.50
2018-07-22T09:14:11.191Z,9.90
2018-07-22T09:16:40.458Z,8.98
2018-07-22T09:19:09.454Z,9.30
2018-07-22T09:21:39.102Z,8.63
2018-07-22T09:24:08.055Z,8.85
2018-07-22T09:26:37.081Z,9.18
2018-07-22T09:29:06.073Z,9.13
2018-07-22T09:31:34.832Z,9.25
2018-07-22T09:34:04.259Z,9.55
2018-07-22T09:36:33.443Z,9.45
2018-07-22T09:39:02.525Z,9.08
2018-07-22T09:41:31.217Z,9.03
2018-07-22T09:44:00.220Z,9.30
2018-07-22T09:46:29.013Z,9.43
2018-07-22T09:48:58.103Z,8.00
2018-07-22T09:51:27.557Z,8.18
2018-07-22T09:53:56.339Z,8.90
2018-07-22T09:56:25.055Z,8.95
2018-07-22T09:58:53.766Z,8.25
2018-07-22T10:01:22.580Z,8.48
2018-07-22T10:03:51.264Z,9.58
2018-07-22T10:06:20.340Z,8.30
2018-07-22T10:08:49.408Z,9.20
2018-07-22T10:11:18.310Z,8.30
2018-07-22T10:13:47.048Z,9.03
2018-07-22T10:16:15.886Z,8.63
2018-07-22T10:18:44.618Z,8.53
2018-07-22T10:21:13.281Z,8.33
2018-07-22T10:23:42.057Z,9.83
2018-07-22T10:26:10.752Z,9.93
2018-07-22T10:28:40.276Z,9.10
2018-07-22T10:31:08.929Z,8.58
2018-07-22T10:33:37.713Z,8.90
2018-07-22T10:36:06.641Z,8.85
2018-07-22T10:38:35.449Z,8.45
2018-07-22T10:41:04.314Z,9.03
2018-07-22T10:43:33.354Z,9.38
2018-07-22T10:46:02.135Z,9.55
2018-07-22T10:48:30.700Z,9.93
2018-07-22T10:50:59.360Z,10.13
2018-07-22T10:53:28.137Z,9.73
2018-07-22T10:55:56.740Z,10.13
2018-07-22T10:58:25.491Z,12.35
2018-07-22T11:00:54.301Z,10.48
2018-07-22T11:03:24.669Z,11.48
2018-07-22T11:05:53.797Z,12.05
2018-07-22T11:08:22.452Z,11.70
2018-07-22T11:10:51.255Z,11.80
2018-07-22T11:13:19.955Z,12.15
2018-07-22T11:15:48.680Z,12.23
2018-07-22T11:18:17.046Z,12.68
2018-07-22T11:20:46.046Z,12.00
2018-07-22T11:23:14.912Z,13.05
2018-07-22T11:25:43.618Z,12.03
2018-07-22T11:28:12.639Z,13.00
2018-07-22T11:30:42.358Z,12.18
2018-07-22T11:33:11.024Z,11.68
2018-07-22T11:35:40.071Z,11.33
2018-07-22T11:38:08.766Z,11.12
2018-07-22T11:40:38.031Z,10.15
2018-07-22T11:43:06.663Z,9.60
2018-07-22T11:45:35.455Z,10.32
2018-07-22T11:48:04.124Z,9.80
2018-07-22T11:50:33.225Z,10.95
2018-07-22T11:53:01.782Z,10.78
2018-07-22T11:55:30.610Z,11.55
2018-07-22T11:57:59.265Z,11.75
2018-07-22T12:00:30.420Z,11.10
2018-07-22T12:03:01.178Z,11.15
2018-07-22T12:05:30.203Z,10.60
2018-07-22T12:07:59.255Z,10.53
2018-07-22T12:13:04.260Z,10.72
2018-07-22T12:18:48.416Z,11.93
2018-07-22T12:21:17.051Z,12.03
2018-07-22T12:23:45.959Z,13.22
2018-07-22T12:26:14.720Z,12.58
2018-07-22T12:28:43.459Z,11.57
2018-07-22T12:31:12.937Z,11.35
2018-07-22T12:33:41.455Z,11.83
2018-07-22T12:36:10.312Z,13.08
2018-07-22T12:38:39.137Z,14.80
2018-07-22T12:41:07.871Z,13.48
2018-07-22T12:43:37.042Z,14.23
2018-07-22T12:46:06.140Z,15.00
2018-07-22T12:48:35.353Z,15.00
2018-07-22T12:51:04.341Z,13.08
2018-07-22T12:53:32.929Z,11.50
2018-07-22T12:56:02.348Z,9.50
2018-07-22T12:58:31.014Z,10.78
2018-07-22T13:00:59.928Z,10.70
2018-07-22T13:03:28.527Z,10.90
2018-07-22T13:06:02.410Z,10.18
2018-07-22T13:08:31.209Z,10.90
2018-07-22T13:11:00.221Z,9.53
2018-07-22T13:13:28.962Z,9.50
2018-07-22T13:15:57.843Z,10.18
2018-07-22T13:18:26.674Z,10.00
2018-07-22T13:20:55.774Z,9.63
2018-07-22T13:23:25.406Z,9.88
2018-07-22T13:25:55.192Z,9.38
2018-07-22T13:28:25.847Z,10.28
2018-07-22T13:30:56.256Z,10.35
2018-07-22T13:33:27.388Z,10.38
2018-07-22T13:35:57.518Z,9.90
2018-07-22T13:38:28.234Z,11.28
2018-07-22T13:40:58.485Z,10.13
2018-07-22T13:43:28.754Z,11.45
2018-07-22T13:45:58.458Z,11.22
2018-07-22T13:48:28.157Z,10.88
